createdAt,value
2023-01-17T00:01:14.778Z,97882.09
2023-01-17T00:04:00.174Z,97882.44
2023-01-17T00:06:45.573Z,97884.59
2023-01-17T00:09:31.359Z,97885.16
2023-01-17T00:11:58.540Z,97895.22
2023-01-17T00:14:25.508Z,97897.38
2023-01-17T00:16:52.306Z,97892.59
2023-01-17T00:19:48.035Z,97897.81
2023-01-17T00:22:51.455Z,97893.09
2023-01-17T00:25:42.344Z,97885.81
2023-01-17T00:28:09.252Z,97899.66
2023-01-17T00:30:39.190Z,97904.28
2023-01-17T00:33:06.328Z,97904.47
2023-01-17T00:35:36.680Z,97908.75
2023-01-17T00:38:19.320Z,97917.81
2023-01-17T00:40:47.172Z,97916.00
2023-01-17T00:43:45.038Z,97921.13
2023-01-17T00:46:31.043Z,97931.28
2023-01-17T00:49:19.064Z,97928.13
2023-01-17T00:52:04.830Z,97933.47
2023-01-17T00:54:51.027Z,97941.94
2023-01-17T00:57:39.408Z,97935.13
2023-01-17T01:04:00.723Z,97952.69
2023-01-17T01:06:47.126Z,97957.47
2023-01-17T01:09:32.861Z,97971.25
2023-01-17T01:12:19.684Z,97981.59
2023-01-17T01:15:05.114Z,97977.63
2023-01-17T01:17:50.934Z,97982.13
2023-01-17T01:20:36.354Z,97987.38
2023-01-17T01:23:25.084Z,97988.13
2023-01-17T01:26:10.817Z,97979.94
2023-01-17T01:28:56.459Z,97994.56
2023-01-17T01:31:42.031Z,97998.25
2023-01-17T01:34:09.123Z,97998.81
2023-01-17T01:36:36.207Z,98013.63
2023-01-17T01:39:06.473Z,98013.63
2023-01-17T01:41:33.295Z,98012.03
2023-01-17T01:44:03.716Z,98009.91
2023-01-17T01:46:36.148Z,98008.84
2023-01-17T01:49:21.013Z,98005.69
2023-01-17T01:52:03.267Z,98007.81
2023-01-17T01:54:45.214Z,98010.50
2023-01-17T01:57:18.291Z,98014.19
2023-01-17T01:59:48.737Z,98017.91
2023-01-17T02:02:17.985Z,98015.78
2023-01-17T02:04:45.329Z,98024.28
2023-01-17T02:07:20.932Z,98012.66
2023-01-17T02:09:48.916Z,98017.41
2023-01-17T02:12:20.659Z,98021.38
2023-01-17T02:14:47.323Z,98015.28
2023-01-17T02:17:31.595Z,98019.78
2023-01-17T02:20:26.875Z,98015.00
2023-01-17T02:23:19.717Z,98027.97
2023-01-17T02:26:05.131Z,98024.44
2023-01-17T02:28:46.170Z,98022.28
2023-01-17T02:31:24.031Z,98024.66
2023-01-17T02:33:55.692Z,98029.34
2023-01-17T02:36:43.943Z,98034.06
2023-01-17T02:39:25.898Z,98030.53
2023-01-17T02:42:00.937Z,98025.94
2023-01-17T02:44:50.208Z,98026.41
2023-01-17T02:47:24.233Z,98028.28
2023-01-17T02:49:53.570Z,98024.84
2023-01-17T02:52:28.789Z,98026.94
2023-01-17T02:55:07.919Z,98034.94
2023-01-17T02:57:50.673Z,98032.09
2023-01-17T03:00:32.620Z,98037.66
2023-01-17T03:03:12.359Z,98041.38
2023-01-17T03:05:49.690Z,98033.44
2023-01-17T03:08:23.155Z,98040.38
2023-01-17T03:10:55.243Z,98040.69
2023-01-17T03:13:26.038Z,98039.44
2023-01-17T03:15:53.563Z,98037.88
2023-01-17T03:18:27.429Z,98037.94
2023-01-17T03:20:57.123Z,98041.72
2023-01-17T03:23:28.977Z,98050.75
2023-01-17T03:26:02.380Z,98045.50
2023-01-17T03:28:34.022Z,98042.84
2023-01-17T03:31:01.798Z,98044.66
2023-01-17T03:33:50.851Z,98046.47
2023-01-17T03:36:18.999Z,98051.44
2023-01-17T03:38:49.534Z,98046.59
2023-01-17T03:41:28.556Z,98046.28
2023-01-17T03:44:06.458Z,98046.75
2023-01-17T03:46:34.486Z,98064.97
2023-01-17T03:49:01.339Z,98055.66
2023-01-17T03:51:31.852Z,98059.44
2023-01-17T03:54:02.062Z,98069.16
2023-01-17T03:56:38.357Z,98061.16
2023-01-17T03:59:06.712Z,98060.63
2023-01-17T04:01:42.105Z,98066.47
2023-01-17T04:04:11.371Z,98055.63
2023-01-17T04:06:46.937Z,98064.94
2023-01-17T04:09:13.594Z,98072.34
2023-01-17T04:11:43.330Z,98076.06
2023-01-17T04:14:10.319Z,98080.28
2023-01-17T04:16:39.518Z,98071.25
2023-01-17T04:19:06.710Z,98065.94
2023-01-17T04:21:36.371Z,98065.88
2023-01-17T04:24:03.024Z,98061.84
2023-01-17T04:26:29.738Z,98063.72
2023-01-17T04:28:56.586Z,98061.69
2023-01-17T04:31:23.258Z,98060.06
2023-01-17T04:33:50.059Z,98059.53
2023-01-17T04:36:16.784Z,98057.22
2023-01-17T04:38:44.881Z,98063.28
2023-01-17T04:41:13.744Z,98063.75
2023-01-17T04:43:40.607Z,98047.53
2023-01-17T04:46:10.277Z,98054.75
2023-01-17T04:48:37.125Z,98055.97
2023-01-17T04:51:07.797Z,98074.81
2023-01-17T04:53:34.629Z,98077.22
2023-01-17T04:56:02.115Z,98070.84
2023-01-17T04:58:28.761Z,98075.09
2023-01-17T05:00:56.009Z,98077.75
2023-01-17T05:03:25.964Z,98069.19
2023-01-17T05:05:53.575Z,98067.50
2023-01-17T05:08:24.477Z,98077.03
2023-01-17T05:10:53.143Z,98077.03
2023-01-17T05:13:20.336Z,98079.72
2023-01-17T05:15:47.148Z,98084.28
2023-01-17T05:18:15.635Z,98083.72
2023-01-17T05:20:45.610Z,98080.50
2023-01-17T05:23:12.969Z,98077.28
2023-01-17T05:25:47.336Z,98079.16
2023-01-17T05:28:14.378Z,98075.41
2023-01-17T05:30:41.225Z,98065.31
2023-01-17T05:33:10.407Z,98066.94
2023-01-17T05:35:37.308Z,98074.66
2023-01-17T05:38:04.254Z,98073.38
2023-01-17T05:40:33.053Z,98078.66
2023-01-17T05:43:00.379Z,98080.22
2023-01-17T05:45:32.771Z,98086.59
2023-01-17T05:47:59.890Z,98086.06
2023-01-17T05:50:28.685Z,98089.75
2023-01-17T05:52:57.524Z,98086.31
2023-01-17T05:55:27.274Z,98075.97
2023-01-17T05:57:55.079Z,98072.22
2023-01-17T06:00:22.504Z,98073.28
2023-01-17T06:02:53.263Z,98069.53
2023-01-17T06:05:24.401Z,98061.31
2023-01-17T06:07:51.141Z,98061.56
2023-01-17T06:10:21.859Z,98059.97
2023-01-17T06:12:54.612Z,98066.31
2023-01-17T06:15:21.571Z,98058.09
2023-01-17T06:17:48.511Z,98067.34
2023-01-17T06:20:15.269Z,98063.09
2023-01-17T06:22:44.052Z,98065.69
2023-01-17T06:25:12.331Z,98063.84
2023-01-17T06:27:39.933Z,98058.31
2023-01-17T06:30:09.784Z,98066.78
2023-01-17T06:32:36.764Z,98067.31
2023-01-17T06:35:03.479Z,98061.47
2023-01-17T06:37:32.972Z,98063.56
2023-01-17T06:40:00.505Z,98051.88
2023-01-17T06:42:27.362Z,98056.09
2023-01-17T06:44:54.289Z,98056.63
2023-01-17T06:47:23.455Z,98052.41
2023-01-17T06:49:50.909Z,98057.44
2023-01-17T06:52:20.685Z,98050.81
2023-01-17T06:54:50.263Z,98051.63
2023-01-17T06:57:16.803Z,98056.63
2023-01-17T06:59:43.582Z,98052.94
2023-01-17T07:02:11.924Z,98048.44
2023-01-17T07:04:41.099Z,98052.44
2023-01-17T07:07:08.554Z,98047.63
2023-01-17T07:09:36.035Z,98054.53
2023-01-17T07:12:02.774Z,98048.66
2023-01-17T07:14:32.882Z,98051.06
2023-01-17T07:16:59.572Z,98054.75
2023-01-17T07:19:27.195Z,98047.31
2023-01-17T07:21:57.538Z,98051.81
2023-01-17T07:24:27.120Z,98037.75
2023-01-17T07:26:54.051Z,98039.09
2023-01-17T07:29:21.241Z,98034.06
2023-01-17T07:31:49.077Z,98034.84
2023-01-17T07:34:15.883Z,98031.41
2023-01-17T07:36:43.029Z,98023.16
2023-01-17T07:39:09.822Z,98026.66
2023-01-17T07:41:41.253Z,98021.69
2023-01-17T07:44:10.949Z,98013.75
2023-01-17T07:46:39.647Z,98019.94
2023-01-17T07:49:06.530Z,98018.91
2023-01-17T07:51:36.489Z,98015.00
2023-01-17T07:54:04.799Z,98011.84
2023-01-17T07:56:34.633Z,98006.88
2023-01-17T07:59:10.177Z,98000.28
2023-01-17T08:01:37.595Z,97996.88
2023-01-17T08:04:05.466Z,97995.03
2023-01-17T08:06:40.451Z,97995.03
2023-01-17T08:09:07.744Z,97999.00
2023-01-17T08:11:39.576Z,97994.00
2023-01-17T08:14:08.173Z,98000.34
2023-01-17T08:17:01.595Z,97993.69
2023-01-17T08:19:31.557Z,97993.28
2023-01-17T08:22:02.298Z,97985.84
2023-01-17T08:24:31.985Z,97986.44
2023-01-17T08:26:59.647Z,97987.09
2023-01-17T08:29:28.085Z,97992.13
2023-01-17T08:31:55.831Z,97989.94
2023-01-17T08:34:33.934Z,97997.50
2023-01-17T08:37:07.937Z,97989.91
2023-01-17T08:39:38.488Z,97985.56
2023-01-17T08:42:08.658Z,97986.53
2023-01-17T08:44:39.548Z,97982.31
2023-01-17T08:47:07.503Z,97985.19
2023-01-17T08:49:34.780Z,97990.41
2023-01-17T08:52:03.413Z,97993.25
2023-01-17T08:54:32.793Z,97990.41
2023-01-17T08:56:59.839Z,97982.63
2023-01-17T08:59:27.660Z,97991.38
2023-01-17T09:02:01.711Z,97988.78
2023-01-17T09:04:28.415Z,97993.84
2023-01-17T09:06:55.466Z,97993.78
2023-01-17T09:09:25.764Z,97997.13
2023-01-17T09:11:55.731Z,98001.31
2023-01-17T09:14:27.513Z,98005.59
2023-01-17T09:16:55.205Z,98009.69
2023-01-17T09:19:27.708Z,98014.91
2023-01-17T09:22:04.046Z,98011.31
2023-01-17T09:24:36.101Z,98008.31
2023-01-17T09:27:09.789Z,98010.00
2023-01-17T09:29:44.041Z,98002.16
2023-01-17T09:32:13.558Z,97998.47
2023-01-17T09:34:40.932Z,97997.19
2023-01-17T09:37:11.461Z,98006.16
2023-01-17T09:39:41.576Z,98005.00
2023-01-17T09:42:19.679Z,98008.06
2023-01-17T09:44:48.164Z,98014.41
2023-01-17T09:47:41.089Z,98011.38
2023-01-17T09:50:18.029Z,98009.03
2023-01-17T09:52:45.347Z,98011.63
2023-01-17T09:55:18.935Z,98015.63
2023-01-17T09:58:05.229Z,98014.06
2023-01-17T10:00:41.647Z,98021.56
2023-01-17T10:03:30.011Z,98014.25
2023-01-17T10:06:09.804Z,98023.66
2023-01-17T10:08:51.012Z,98019.28
2023-01-17T10:11:34.150Z,98017.72
2023-01-17T10:14:12.156Z,98017.91
2023-01-17T10:17:02.098Z,98020.09
2023-01-17T10:19:40.754Z,98013.91
2023-01-17T10:22:26.389Z,98015.13
2023-01-17T10:25:03.240Z,98021.16
2023-01-17T10:27:42.729Z,98019.66
2023-01-17T10:30:18.005Z,98007.00
2023-01-17T10:32:50.810Z,98015.50
2023-01-17T10:35:30.382Z,98003.44
2023-01-17T10:37:58.714Z,98021.28
2023-01-17T10:40:44.386Z,98008.75
2023-01-17T10:43:24.700Z,97999.56
2023-01-17T10:45:55.656Z,97997.84
2023-01-17T10:48:40.567Z,97999.28
2023-01-17T10:51:23.515Z,97999.38
2023-01-17T10:54:03.064Z,97995.44
2023-01-17T10:56:29.918Z,97992.97
2023-01-17T10:59:20.018Z,97989.00
2023-01-17T11:01:58.345Z,97987.22
2023-01-17T11:04:38.625Z,97986.66
2023-01-17T11:07:31.315Z,97995.09
2023-01-17T11:10:01.317Z,97982.97
2023-01-17T11:12:39.986Z,97982.19
2023-01-17T11:15:10.367Z,97973.22
2023-01-17T11:17:53.904Z,97966.81
2023-01-17T11:20:28.451Z,97962.34
2023-01-17T11:23:07.629Z,97962.41
2023-01-17T11:25:37.459Z,97970.81
2023-01-17T11:28:08.648Z,97961.09
2023-01-17T11:30:53.535Z,97949.28
2023-01-17T11:33:56.919Z,97943.59
2023-01-17T11:36:34.490Z,97943.00
2023-01-17T11:39:05.051Z,97944.53
2023-01-17T11:41:42.158Z,97937.47
2023-01-17T11:44:26.312Z,97934.41
2023-01-17T11:47:09.874Z,97930.72
2023-01-17T11:49:36.435Z,97918.44
2023-01-17T11:52:24.123Z,97912.69
2023-01-17T11:54:56.582Z,97905.69
2023-01-17T11:57:26.280Z,97894.59
2023-01-17T12:00:11.757Z,97890.53
2023-01-17T12:03:03.142Z,97890.16
2023-01-17T12:05:48.945Z,97882.97
2023-01-17T12:08:32.223Z,97883.47
2023-01-17T12:11:03.752Z,97876.03
2023-01-17T12:13:49.711Z,97876.69
2023-01-17T12:16:36.902Z,97876.47
2023-01-17T12:19:12.552Z,97862.75
2023-01-17T12:21:47.242Z,97859.56
2023-01-17T12:24:17.255Z,97857.44
2023-01-17T12:26:53.176Z,97859.09
2023-01-17T12:29:42.248Z,97860.91
2023-01-17T12:32:12.481Z,97862.28
2023-01-17T12:34:57.362Z,97860.19
2023-01-17T12:37:34.627Z,97852.81
2023-01-17T12:40:08.003Z,97854.09
2023-01-17T12:42:43.847Z,97849.06
2023-01-17T12:45:20.936Z,97835.97
2023-01-17T12:47:54.572Z,97823.28
2023-01-17T12:50:29.219Z,97825.38
2023-01-17T12:53:04.935Z,97819.63
2023-01-17T12:55:40.888Z,97816.78
2023-01-17T12:58:12.950Z,97810.75
2023-01-17T13:00:40.059Z,97805.22
2023-01-17T13:03:20.930Z,97801.00
2023-01-17T13:05:48.954Z,97805.50
2023-01-17T13:08:26.346Z,97814.44
2023-01-17T13:11:10.601Z,97811.47
2023-01-17T13:13:42.273Z,97798.56
2023-01-17T13:16:18.044Z,97800.28
2023-01-17T13:18:54.885Z,97800.03
2023-01-17T13:21:32.530Z,97789.44
2023-01-17T13:24:14.760Z,97788.22
2023-01-17T13:26:51.139Z,97777.16
2023-01-17T13:29:31.082Z,97778.59
2023-01-17T13:32:16.819Z,97775.78
2023-01-17T13:34:56.226Z,97765.97
2023-01-17T13:37:43.597Z,97766.22
2023-01-17T13:40:32.128Z,97762.41
2023-01-17T13:43:02.254Z,97758.13
2023-01-17T13:45:32.703Z,97751.06
2023-01-17T13:48:21.167Z,97758.13
2023-01-17T13:50:57.608Z,97767.22
2023-01-17T13:53:40.605Z,97760.91
2023-01-17T13:56:14.178Z,97757.19
2023-01-17T13:58:50.643Z,97760.06
2023-01-17T14:01:23.548Z,97759.97
2023-01-17T14:03:53.227Z,97771.03
2023-01-17T14:06:41.793Z,97768.66
2023-01-17T14:09:08.476Z,97767.66
2023-01-17T14:11:36.435Z,97769.66
2023-01-17T14:14:23.815Z,97779.69
2023-01-17T14:16:59.137Z,97789.34
2023-01-17T14:19:27.191Z,97784.03
2023-01-17T14:22:16.276Z,97786.41
2023-01-17T14:25:02.340Z,97786.97
2023-01-17T14:27:34.701Z,97782.66
2023-01-17T14:30:09.712Z,97788.38
2023-01-17T14:32:38.603Z,97790.31
2023-01-17T14:35:06.610Z,97794.09
2023-01-17T14:37:46.605Z,97791.09
2023-01-17T14:40:16.881Z,97792.41
2023-01-17T14:42:52.584Z,97791.59
2023-01-17T14:45:24.198Z,97798.59
2023-01-17T14:47:53.978Z,97805.00
2023-01-17T14:50:25.264Z,97798.41
2023-01-17T14:53:16.061Z,97799.97
2023-01-17T14:55:51.205Z,97801.34
2023-01-17T14:58:23.044Z,97803.09
2023-01-17T15:00:53.964Z,97804.25
2023-01-17T15:03:28.741Z,97802.88
2023-01-17T15:05:56.931Z,97809.56
2023-01-17T15:08:28.230Z,97804.84
2023-01-17T15:10:59.500Z,97811.72
2023-01-17T15:13:44.879Z,97811.72
2023-01-17T15:16:18.805Z,97817.03
2023-01-17T15:18:50.470Z,97820.81
2023-01-17T15:21:21.692Z,97812.09
2023-01-17T15:23:50.812Z,97814.38
2023-01-17T15:26:21.925Z,97814.44
2023-01-17T15:29:11.585Z,97815.69
2023-01-17T15:31:55.797Z,97811.22
2023-01-17T15:34:32.002Z,97808.06
2023-01-17T15:37:01.435Z,97804.31
2023-01-17T15:39:30.384Z,97807.75
2023-01-17T15:42:00.545Z,97808.63
2023-01-17T15:44:42.687Z,97809.41
2023-01-17T15:47:28.539Z,97819.84
2023-01-17T15:49:57.289Z,97807.72
2023-01-17T15:52:46.221Z,97812.16
2023-01-17T15:55:39.287Z,97798.81
2023-01-17T15:58:30.716Z,97801.09
2023-01-17T16:00:59.801Z,97802.47
2023-01-17T16:03:36.372Z,97801.53
2023-01-17T16:06:26.243Z,97795.22
2023-01-17T16:08:56.038Z,97787.25
2023-01-17T16:11:26.907Z,97792.03
2023-01-17T16:13:57.214Z,97786.47
2023-01-17T16:16:35.681Z,97787.00
2023-01-17T16:19:03.214Z,97783.06
2023-01-17T16:21:34.502Z,97789.66
2023-01-17T16:24:03.185Z,97786.78
2023-01-17T16:26:29.999Z,97788.09
2023-01-17T16:29:00.390Z,97803.44
2023-01-17T16:31:33.681Z,97803.03
2023-01-17T16:34:00.623Z,97802.50
2023-01-17T16:36:28.771Z,97806.19
2023-01-17T16:38:59.479Z,97801.06
2023-01-17T16:41:27.183Z,97806.44
2023-01-17T16:44:00.613Z,97801.16
2023-01-17T16:46:31.124Z,97799.84
2023-01-17T16:49:01.163Z,97805.44
2023-01-17T16:51:28.498Z,97800.13
2023-01-17T16:53:58.515Z,97801.25
2023-01-17T16:56:29.388Z,97801.38
2023-01-17T16:58:56.972Z,97809.38
2023-01-17T17:01:27.134Z,97802.47
2023-01-17T17:04:02.014Z,97803.59
2023-01-17T17:06:32.093Z,97796.50
2023-01-17T17:08:59.557Z,97791.97
2023-01-17T17:11:26.728Z,97789.84
2023-01-17T17:13:53.632Z,97782.38
2023-01-17T17:16:22.452Z,97786.41
2023-01-17T17:19:00.655Z,97781.94
2023-01-17T17:21:28.837Z,97793.69
2023-01-17T17:23:59.910Z,97787.63
2023-01-17T17:26:31.595Z,97793.78
2023-01-17T17:29:00.635Z,97791.19
2023-01-17T17:31:28.789Z,97790.16
2023-01-17T17:34:03.443Z,97792.84
2023-01-17T17:36:32.468Z,97792.66
2023-01-17T17:39:02.508Z,97796.63
2023-01-17T17:41:30.736Z,97803.00
2023-01-17T17:43:57.879Z,97810.44
2023-01-17T17:46:27.873Z,97811.78
2023-01-17T17:48:56.353Z,97817.03
2023-01-17T17:51:32.545Z,97815.69
2023-01-17T17:54:01.820Z,97821.13
2023-01-17T17:56:30.486Z,97824.56
2023-01-17T17:59:00.976Z,97828.25
2023-01-17T18:01:28.524Z,97832.44
2023-01-17T18:03:59.664Z,97835.41
2023-01-17T18:06:27.107Z,97831.97
2023-01-17T18:08:56.941Z,97832.09
2023-01-17T18:11:29.922Z,97845.94
2023-01-17T18:14:00.127Z,97837.53
2023-01-17T18:16:38.225Z,97834.44
2023-01-17T18:19:05.603Z,97843.44
2023-01-17T18:21:34.864Z,97845.03
2023-01-17T18:24:09.183Z,97846.59
2023-01-17T18:26:41.787Z,97845.50
2023-01-17T18:29:15.814Z,97847.56
2023-01-17T18:31:46.001Z,97845.94
2023-01-17T18:34:15.932Z,97849.63
2023-01-17T18:36:43.066Z,97852.19
2023-01-17T18:39:12.303Z,97848.72
2023-01-17T18:41:39.783Z,97845.69
2023-01-17T18:44:10.431Z,97845.59
2023-01-17T18:46:41.815Z,97854.84
2023-01-17T18:49:11.648Z,97860.94
2023-01-17T18:51:40.461Z,97857.56
2023-01-17T18:54:09.100Z,97866.41
2023-01-17T18:56:40.639Z,97871.75
2023-01-17T18:59:15.430Z,97872.28
2023-01-17T19:01:45.129Z,97869.56
2023-01-17T19:04:13.343Z,97873.81
2023-01-17T19:06:44.639Z,97870.66
2023-01-17T19:09:12.679Z,97873.25
2023-01-17T19:11:45.229Z,97881.69
2023-01-17T19:14:13.187Z,97878.53
2023-01-17T19:16:47.963Z,97883.84
2023-01-17T19:19:16.360Z,97890.25
2023-01-17T19:21:43.889Z,97894.28
2023-01-17T19:24:13.745Z,97901.53
2023-01-17T19:26:40.576Z,97891.50
2023-01-17T19:29:11.349Z,97906.91
2023-01-17T19:31:44.448Z,97893.91
2023-01-17T19:34:16.821Z,97904.19
2023-01-17T19:36:46.347Z,97902.56
2023-01-17T19:39:13.558Z,97905.22
2023-01-17T19:41:47.594Z,97906.06
2023-01-17T19:44:16.855Z,97906.91
2023-01-17T19:46:44.188Z,97902.94
2023-01-17T19:49:10.885Z,97905.88
2023-01-17T19:51:40.261Z,97898.44
2023-01-17T19:54:16.307Z,97903.75
2023-01-17T19:56:53.407Z,97903.22
2023-01-17T19:59:26.316Z,97912.22
2023-01-17T20:02:03.103Z,97910.38
2023-01-17T20:04:34.691Z,97902.13
2023-01-17T20:07:04.448Z,97900.56
2023-01-17T20:09:34.233Z,97898.69
2023-01-17T20:12:02.561Z,97902.63
2023-01-17T20:14:32.605Z,97903.00
2023-01-17T20:17:07.669Z,97902.91
2023-01-17T20:19:37.610Z,97895.41
2023-01-17T20:22:10.176Z,97899.06
2023-01-17T20:24:39.861Z,97910.41
2023-01-17T20:27:09.866Z,97910.13
2023-01-17T20:29:44.094Z,97906.84
2023-01-17T20:32:10.760Z,97909.00
2023-01-17T20:34:40.094Z,97906.84
2023-01-17T20:37:09.870Z,97916.31
2023-01-17T20:39:39.302Z,97917.47
2023-01-17T20:42:06.813Z,97917.56
2023-01-17T20:44:38.285Z,97923.97
2023-01-17T20:47:11.572Z,97927.94
2023-01-17T20:49:44.747Z,97932.47
2023-01-17T20:52:15.481Z,97929.28
2023-01-17T20:54:43.323Z,97934.91
2023-01-17T20:57:15.906Z,97922.63
2023-01-17T20:59:42.762Z,97932.88
2023-01-17T21:02:12.689Z,97923.22
2023-01-17T21:04:42.295Z,97924.19
2023-01-17T21:07:10.511Z,97934.19
2023-01-17T21:09:41.595Z,97930.13
2023-01-17T21:12:10.923Z,97933.06
2023-01-17T21:14:46.577Z,97932.03
2023-01-17T21:17:16.406Z,97931.53
2023-01-17T21:19:44.149Z,97935.53
2023-01-17T21:22:11.338Z,97929.44
2023-01-17T21:24:44.732Z,97934.06
2023-01-17T21:27:19.769Z,97942.50
2023-01-17T21:29:53.065Z,97939.97
2023-01-17T21:32:24.099Z,97939.28
2023-01-17T21:34:53.513Z,97935.84
2023-01-17T21:37:25.961Z,97944.06
2023-01-17T21:39:57.089Z,97935.94
2023-01-17T21:42:30.448Z,97939.63
2023-01-17T21:44:57.155Z,97943.03
2023-01-17T21:47:31.200Z,97939.66
2023-01-17T21:50:04.358Z,97938.91
2023-01-17T21:52:32.052Z,97941.28
2023-01-17T21:55:18.084Z,97938.56
2023-01-17T21:58:07.966Z,97940.22
2023-01-17T22:00:37.528Z,97944.09
2023-01-17T22:03:07.073Z,97945.63
2023-01-17T22:05:35.036Z,97939.16
2023-01-17T22:08:14.824Z,97947.03
2023-01-17T22:11:15.188Z,97942.31
2023-01-17T22:13:43.668Z,97947.34
2023-01-17T22:18:56.480Z,97948.53
2023-01-17T22:21:29.480Z,97951.72
2023-01-17T22:24:02.850Z,97952.72
2023-01-17T22:26:32.198Z,97951.63
2023-01-17T22:29:04.585Z,97953.28
2023-01-17T22:31:37.359Z,97954.41
2023-01-17T22:34:36.866Z,97951.28
2023-01-17T22:37:11.280Z,97953.47
2023-01-17T22:39:41.495Z,97963.09
2023-01-17T22:42:14.984Z,97964.47
2023-01-17T22:44:44.695Z,97959.44
2023-01-17T22:47:13.491Z,97970.06
2023-01-17T22:49:49.562Z,97962.66
2023-01-17T22:52:27.692Z,97959.00
2023-01-17T22:55:08.784Z,97966.66
2023-01-17T22:57:35.806Z,97957.31
2023-01-17T23:00:19.913Z,97957.31
2023-01-17T23:02:52.477Z,97953.03
2023-01-17T23:05:46.679Z,97957.28
2023-01-17T23:08:23.305Z,97958.91
2023-01-17T23:11:11.731Z,97953.63
2023-01-17T23:13:47.089Z,97945.97
2023-01-17T23:16:45.004Z,97950.81
2023-01-17T23:19:24.490Z,97951.69
2023-01-17T23:22:27.175Z,97946.13
2023-01-17T23:25:00.643Z,97950.66
2023-01-17T23:27:46.217Z,97946.41
2023-01-17T23:30:17.363Z,97950.97
2023-01-17T23:32:51.751Z,97955.50
2023-01-17T23:35:22.642Z,97954.69
2023-01-17T23:38:17.873Z,97940.72
2023-01-17T23:41:06.468Z,97941.59
2023-01-17T23:43:33.912Z,97948.72
2023-01-17T23:46:25.357Z,97944.19
2023-01-17T23:49:02.936Z,97943.38
2023-01-17T23:51:29.846Z,97936.31
2023-01-17T23:54:22.682Z,97939.31
2023-01-17T23:56:52.733Z,97948.28
2023-01-17T23:59:30.656Z,97939.25
